Cameron, WI

10:30 AM CST on December 07, 2016 (GMT -0600)
Rice Lake Regional-Carl's

Weather History for KRPD - April, 2013

Change the Weather History Date:

Saturday, April 6, 2013

  Actual Average Record
Temperature  
Mean Temperature 37 °F -  
Max Temperature 42 °F 47 °F 62 °F (2006)
Min Temperature 32 °F 28 °F 14 °F (2007)
Degree Days  
Heating Degree Days 28    
Moisture  
Dew Point 31 °F    
Average Humidity 85    
Maximum Humidity 100    
Minimum Humidity 61    
Precipitation  
Precipitation 0.16 in - - ()
Sea Level Pressure  
Sea Level Pressure 29.71 in    
Wind  
Wind Speed 13 mph (ESE)    
Max Wind Speed 21 mph    
Max Gust Speed 31 mph    
Visibility 9 miles    
Events Rain , Snow    
Averages and records for this station are not official NWS values.
T = Trace of Precipitation, MM = Missing Value Source: NWS Daily Summary

Daily Weather History Graph

Daily Weather History Graph

Search for Another Location

Airport or City:

Trip Planner

Search our weather history database for the weather conditions in past years. The results will help you decide how hot, cold, wet, or windy it might be!

Date:

Astronomy

Apr. 06, 2013 Rise Set
Actual Time 6:37 AM CDT 7:42 PM CDT
Civil Twilight 6:07 AM CDT 8:12 PM CDT
Nautical Twilight 5:31 AM CDT 8:48 PM CDT
Astronomical Twilight 4:53 AM CDT 9:26 PM CDT
Moon 4:31 AM CDT (4/6) 4:01 PM CDT (4/6)
Length of Visible Light 14h 04m
Length of Day
13h 04m
Waning Crescent, 15% of the Moon is Illuminated
Apr 6
Waning Crescent
Apr 10
New
Apr 18
First Quarter
Apr 25
Full
May 2
Last Quarter

Hourly Weather History & Observations

Time (CDT) Temp. Windchill Dew Point Humidity Pressure Visibility Wind Dir Wind Speed Gust Speed Precip Events Conditions
12:15 AM 32.0 °F 22.5 °F 32.0 °F 100% 30.00 in 1.8 mi ESE 12.7 mph 17.3 mph N/A Snow Light Snow
12:35 AM 32.0 °F 23.0 °F 32.0 °F 100% 29.99 in 5.0 mi ESE 11.5 mph - N/A Snow Light Snow
12:55 AM 32.0 °F 23.0 °F 32.0 °F 100% 29.98 in 10.0 mi East 11.5 mph - N/A   Overcast
1:15 AM 32.0 °F 23.6 °F 32.0 °F 100% 29.97 in 10.0 mi East 10.4 mph 17.3 mph N/A   Overcast
1:55 AM 32.0 °F 23.0 °F 32.0 °F 100% 29.94 in 10.0 mi ESE 11.5 mph 16.1 mph N/A   Overcast
2:15 AM 33.8 °F 23.9 °F 32.0 °F 93% 29.93 in 10.0 mi ESE 15.0 mph - N/A   Overcast
2:35 AM 33.8 °F 23.2 °F 32.0 °F 93% 29.92 in 10.0 mi ESE 17.3 mph 21.9 mph N/A   Overcast
2:55 AM 33.8 °F 22.5 °F 32.0 °F 93% 29.91 in 10.0 mi SE 19.6 mph 25.3 mph N/A   Overcast
3:15 AM 33.8 °F 22.8 °F 32.0 °F 93% 29.90 in 10.0 mi ESE 18.4 mph 27.6 mph N/A   Overcast
3:35 AM 33.8 °F 22.2 °F 32.0 °F 93% 29.89 in 10.0 mi ESE 20.7 mph 31.1 mph N/A   Light Drizzle
3:55 AM 32.0 °F 19.8 °F 32.0 °F 100% 29.88 in 10.0 mi ESE 20.7 mph 26.5 mph N/A   Overcast
4:15 AM 32.0 °F 20.5 °F 32.0 °F 100% 29.86 in 10.0 mi ESE 18.4 mph 28.8 mph N/A   Overcast
4:35 AM 32.0 °F 20.8 °F 32.0 °F 100% 29.86 in 10.0 mi ESE 17.3 mph 24.2 mph N/A   Overcast
4:55 AM 32.0 °F 20.8 °F 32.0 °F 100% 29.85 in 10.0 mi SE 17.3 mph 24.2 mph N/A   Overcast
5:15 AM 32.0 °F 21.2 °F 30.2 °F 93% 29.85 in 10.0 mi ESE 16.1 mph 24.2 mph N/A   Overcast
5:35 AM 32.0 °F 21.6 °F 30.2 °F 93% 29.84 in 10.0 mi ESE 15.0 mph 24.2 mph N/A   Overcast
5:55 AM 32.0 °F 21.6 °F 30.2 °F 93% 29.83 in 10.0 mi ESE 15.0 mph 20.7 mph N/A   Overcast
6:15 AM 32.0 °F 20.8 °F 30.2 °F 93% 29.83 in 10.0 mi ESE 17.3 mph - N/A   Overcast
6:35 AM 32.0 °F 21.6 °F 28.4 °F 87% 29.82 in 10.0 mi ESE 15.0 mph - N/A   Overcast
6:55 AM 32.0 °F 21.6 °F 28.4 °F 87% 29.82 in 10.0 mi ESE 15.0 mph 20.7 mph N/A   Overcast
7:15 AM 32.0 °F 22.5 °F 28.4 °F 87% 29.81 in 10.0 mi ESE 12.7 mph 18.4 mph N/A   Overcast
7:35 AM 32.0 °F 22.1 °F 28.4 °F 87% 29.81 in 10.0 mi ESE 13.8 mph - N/A   Overcast
7:55 AM 32.0 °F 21.6 °F 28.4 °F 87% 29.79 in 10.0 mi ESE 15.0 mph 20.7 mph N/A   Overcast
8:15 AM 32.0 °F 22.1 °F 28.4 °F 87% 29.79 in 7.0 mi ESE 13.8 mph 19.6 mph N/A   Overcast
8:35 AM 32.0 °F 21.6 °F 26.6 °F 80% 29.77 in 10.0 mi ESE 15.0 mph - N/A   Overcast
8:55 AM 32.0 °F 20.8 °F 26.6 °F 80% 29.76 in 10.0 mi ESE 17.3 mph 23.0 mph N/A   Overcast
9:15 AM 32.0 °F 21.2 °F 26.6 °F 80% 29.75 in 10.0 mi ESE 16.1 mph - N/A   Overcast
9:35 AM 32.0 °F 20.5 °F 26.6 °F 80% 29.73 in 10.0 mi ESE 18.4 mph 23.0 mph N/A   Overcast
9:55 AM 33.8 °F 22.8 °F 26.6 °F 75% 29.72 in 10.0 mi ESE 18.4 mph 25.3 mph N/A   Overcast
10:15 AM 33.8 °F 23.2 °F 26.6 °F 75% 29.71 in 10.0 mi ESE 17.3 mph 21.9 mph N/A   Overcast
10:35 AM 33.8 °F 22.8 °F 26.6 °F 75% 29.70 in 10.0 mi SE 18.4 mph 24.2 mph N/A   Overcast
10:55 AM 35.6 °F 26.2 °F 26.6 °F 70% 29.69 in 10.0 mi SE 15.0 mph 18.4 mph N/A   Scattered Clouds
11:15 AM 35.6 °F 26.6 °F 26.6 °F 70% 29.68 in 10.0 mi SE 13.8 mph 23.0 mph N/A   Scattered Clouds
11:35 AM 35.6 °F 26.2 °F 26.6 °F 70% 29.66 in 10.0 mi SE 15.0 mph 19.6 mph N/A   Light Drizzle
11:55 AM 37.4 °F 29.3 °F 28.4 °F 70% 29.65 in 10.0 mi ESE 12.7 mph 17.3 mph N/A   Mostly Cloudy
12:15 PM 37.4 °F 29.3 °F 28.4 °F 70% 29.64 in 10.0 mi SE 12.7 mph 18.4 mph N/A   Mostly Cloudy
12:35 PM 37.4 °F 29.8 °F 28.4 °F 70% 29.64 in 10.0 mi SE 11.5 mph - N/A   Light Drizzle
12:55 PM 41.0 °F 32.8 °F 30.2 °F 65% 29.62 in 10.0 mi SE 16.1 mph - N/A   Scattered Clouds
1:15 PM 41.0 °F 33.1 °F 30.2 °F 65% 29.62 in 10.0 mi SE 15.0 mph - N/A   Scattered Clouds
1:35 PM 41.0 °F 33.9 °F 30.2 °F 65% 29.61 in 10.0 mi SE 12.7 mph 20.7 mph N/A   Mostly Cloudy
1:55 PM 42.8 °F 35.8 °F 30.2 °F 61% 29.60 in 10.0 mi SE 13.8 mph 17.3 mph N/A   Overcast
2:15 PM 42.8 °F 37.0 °F 30.2 °F 61% 29.59 in 10.0 mi SE 10.4 mph - N/A   Overcast
2:35 PM 41.0 °F 35.2 °F 30.2 °F 65% 29.58 in 10.0 mi SE 9.2 mph - N/A   Overcast
2:55 PM 41.0 °F 34.7 °F 30.2 °F 65% 29.58 in 10.0 mi SE 10.4 mph - N/A   Overcast
3:15 PM 42.8 °F 38.0 °F 30.2 °F 61% 29.56 in 10.0 mi ESE 8.1 mph - N/A   Overcast
3:35 PM 42.8 °F 38.6 °F 30.2 °F 61% 29.55 in 10.0 mi ESE 6.9 mph - N/A   Overcast
3:55 PM 41.0 °F 37.1 °F 32.0 °F 70% 29.55 in 10.0 mi ESE 5.8 mph - N/A Rain Rain
4:15 PM 41.0 °F 39.0 °F 32.0 °F 70% 29.55 in 10.0 mi East 3.5 mph - N/A Rain Light Rain
4:35 PM 37.4 °F 33.8 °F 32.0 °F 81% 29.55 in 10.0 mi North 4.6 mph - N/A Rain Rain
4:55 PM 37.4 °F 33.8 °F 32.0 °F 81% 29.55 in 10.0 mi North 4.6 mph - 0.01 in   Drizzle
5:15 PM 35.6 °F 29.9 °F 33.8 °F 93% 29.55 in 4.0 mi North 6.9 mph - 0.01 in Rain Rain
5:35 PM 35.6 °F 29.2 °F 33.8 °F 93% 29.55 in 2.5 mi North 8.1 mph - 0.04 in Rain Rain
5:55 PM 35.6 °F 29.9 °F 33.8 °F 93% 29.56 in 2.5 mi North 6.9 mph - 0.08 in Rain Rain
6:15 PM 35.6 °F 28.6 °F 33.8 °F 93% 29.56 in 3.0 mi North 9.2 mph - 0.03 in Rain Rain
6:35 PM 35.6 °F 29.9 °F 35.6 °F 100% 29.57 in 4.0 mi NNW 6.9 mph - 0.05 in Rain Rain
7:15 PM 35.6 °F 29.9 °F 33.8 °F 93% 29.58 in 4.0 mi NNW 6.9 mph - 0.01 in Rain Light Rain
7:35 PM 35.6 °F 29.9 °F 33.8 °F 93% 29.58 in 4.0 mi NNW 6.9 mph - 0.01 in   Drizzle
7:55 PM 33.8 °F 26.4 °F 33.8 °F 100% 29.59 in 4.0 mi NW 9.2 mph - 0.02 in Rain Light Rain
8:15 PM 33.8 °F 27.0 °F 32.0 °F 93% 29.59 in 7.0 mi NNW 8.1 mph - N/A Rain Light Rain
8:35 PM 33.8 °F 29.6 °F 32.0 °F 93% 29.60 in 10.0 mi NNW 4.6 mph - N/A   Overcast
8:55 PM 33.8 °F 28.6 °F 32.0 °F 93% 29.61 in 10.0 mi NW 5.8 mph - N/A   Overcast
9:15 PM 33.8 °F 27.7 °F 32.0 °F 93% 29.63 in 10.0 mi WNW 6.9 mph - N/A   Overcast
9:35 PM 33.8 °F 28.6 °F 32.0 °F 93% 29.64 in 10.0 mi NW 5.8 mph - N/A   Overcast
9:55 PM 33.8 °F 26.4 °F 32.0 °F 93% 29.65 in 10.0 mi NW 9.2 mph - N/A   Overcast
10:15 PM 33.8 °F 25.8 °F 32.0 °F 93% 29.66 in 10.0 mi NW 10.4 mph 17.3 mph N/A   Overcast
10:35 PM 33.8 °F 26.4 °F 32.0 °F 93% 29.66 in 10.0 mi NW 9.2 mph - N/A   Overcast
10:55 PM 33.8 °F 26.4 °F 32.0 °F 93% 29.67 in 10.0 mi NW 9.2 mph - N/A   Overcast
11:15 PM 33.8 °F 27.7 °F 32.0 °F 93% 29.67 in 10.0 mi NW 6.9 mph - N/A   Overcast
11:35 PM 33.8 °F 27.0 °F 32.0 °F 93% 29.68 in 10.0 mi NW 8.1 mph - N/A   Overcast
11:55 PM 33.8 °F 25.8 °F 32.0 °F 93% 29.69 in 10.0 mi WNW 10.4 mph 16.1 mph N/A   Overcast